sensor_id;sensor_type;location;lat;lon;timestamp;pressure;altitude;pressure_sealevel;temperature;humidity
79703;BME280;69172;52.352;5.006;2023-05-10T00:01:01;100845.19;;;12.37;89.90
79703;BME280;69172;52.352;5.006;2023-05-10T00:03:27;100839.78;;;12.31;89.72
79703;BME280;69172;52.352;5.006;2023-05-10T00:05:53;100838.00;;;12.30;89.78
79703;BME280;69172;52.352;5.006;2023-05-10T00:08:18;100838.63;;;12.26;89.93
79703;BME280;69172;52.352;5.006;2023-05-10T00:10:44;100835.09;;;12.24;90.18
79703;BME280;69172;52.352;5.006;2023-05-10T00:13:09;100839.16;;;12.19;90.24
79703;BME280;69172;52.352;5.006;2023-05-10T00:15:35;100834.00;;;12.19;90.49
79703;BME280;69172;52.352;5.006;2023-05-10T00:18:00;100832.97;;;12.15;90.71
79703;BME280;69172;52.352;5.006;2023-05-10T00:20:26;100829.53;;;12.15;90.54
79703;BME280;69172;52.352;5.006;2023-05-10T00:22:51;100827.75;;;12.14;90.51
79703;BME280;69172;52.352;5.006;2023-05-10T00:25:17;100827.44;;;12.08;90.71
79703;BME280;69172;52.352;5.006;2023-05-10T00:27:42;100832.28;;;12.02;90.66
79703;BME280;69172;52.352;5.006;2023-05-10T00:30:08;100839.22;;;12.03;90.71
79703;BME280;69172;52.352;5.006;2023-05-10T00:32:33;100838.25;;;12.01;90.93
79703;BME280;69172;52.352;5.006;2023-05-10T00:34:59;100832.13;;;11.99;90.74
79703;BME280;69172;52.352;5.006;2023-05-10T00:37:24;100834.47;;;11.94;91.07
79703;BME280;69172;52.352;5.006;2023-05-10T00:39:49;100839.06;;;12.00;90.93
79703;BME280;69172;52.352;5.006;2023-05-10T00:42:15;100836.41;;;11.98;90.85
79703;BME280;69172;52.352;5.006;2023-05-10T00:44:40;100842.44;;;11.99;91.05
79703;BME280;69172;52.352;5.006;2023-05-10T00:47:06;100842.38;;;11.97;91.09
79703;BME280;69172;52.352;5.006;2023-05-10T00:49:32;100832.69;;;11.93;91.07
79703;BME280;69172;52.352;5.006;2023-05-10T00:51:57;100840.44;;;11.93;91.20
79703;BME280;69172;52.352;5.006;2023-05-10T00:54:23;100835.06;;;11.88;90.85
79703;BME280;69172;52.352;5.006;2023-05-10T00:56:50;100842.00;;;11.89;91.23
79703;BME280;69172;52.352;5.006;2023-05-10T00:59:16;100846.03;;;11.84;91.18
79703;BME280;69172;52.352;5.006;2023-05-10T01:01:44;100846.84;;;11.83;91.23
79703;BME280;69172;52.352;5.006;2023-05-10T01:04:11;100851.03;;;11.81;91.22
79703;BME280;69172;52.352;5.006;2023-05-10T01:06:38;100847.50;;;11.79;91.34
79703;BME280;69172;52.352;5.006;2023-05-10T01:09:04;100858.91;;;11.84;91.00
79703;BME280;69172;52.352;5.006;2023-05-10T01:11:30;100859.16;;;11.89;91.25
79703;BME280;69172;52.352;5.006;2023-05-10T01:13:57;100854.94;;;11.91;90.80
79703;BME280;69172;52.352;5.006;2023-05-10T01:16:23;100851.00;;;11.98;91.01
79703;BME280;69172;52.352;5.006;2023-05-10T01:18:50;100854.09;;;12.08;90.19
79703;BME280;69172;52.352;5.006;2023-05-10T01:21:23;100854.41;;;12.14;90.34
79703;BME280;69172;52.352;5.006;2023-05-10T01:24:09;100858.09;;;12.19;90.48
79703;BME280;69172;52.352;5.006;2023-05-10T01:29:53;100858.84;;;12.17;89.92
79703;BME280;69172;52.352;5.006;2023-05-10T01:32:30;100863.69;;;12.11;89.75
79703;BME280;69172;52.352;5.006;2023-05-10T01:35:03;100854.16;;;12.10;89.73
79703;BME280;69172;52.352;5.006;2023-05-10T01:37:40;100856.84;;;12.11;89.29
79703;BME280;69172;52.352;5.006;2023-05-10T01:40:17;100855.00;;;12.09;89.30
79703;BME280;69172;52.352;5.006;2023-05-10T01:43:05;100853.31;;;12.09;89.51
79703;BME280;69172;52.352;5.006;2023-05-10T01:45:47;100855.72;;;12.06;89.12
79703;BME280;69172;52.352;5.006;2023-05-10T01:48:17;100856.00;;;12.12;89.39
79703;BME280;69172;52.352;5.006;2023-05-10T01:50:45;100857.88;;;12.15;89.15
79703;BME280;69172;52.352;5.006;2023-05-10T01:53:12;100858.69;;;12.14;89.10
79703;BME280;69172;52.352;5.006;2023-05-10T01:55:46;100855.00;;;12.09;88.88
79703;BME280;69172;52.352;5.006;2023-05-10T01:58:20;100856.75;;;12.10;89.21
79703;BME280;69172;52.352;5.006;2023-05-10T02:00:47;100861.84;;;12.08;89.25
79703;BME280;69172;52.352;5.006;2023-05-10T02:03:15;100862.72;;;12.09;89.17
79703;BME280;69172;52.352;5.006;2023-05-10T02:05:43;100864.41;;;12.08;89.10
79703;BME280;69172;52.352;5.006;2023-05-10T02:08:10;100868.09;;;12.13;89.51
79703;BME280;69172;52.352;5.006;2023-05-10T02:10:36;100861.91;;;12.10;89.35
79703;BME280;69172;52.352;5.006;2023-05-10T02:13:05;100861.03;;;12.09;89.46
79703;BME280;69172;52.352;5.006;2023-05-10T02:15:35;100858.16;;;12.03;89.45
79703;BME280;69172;52.352;5.006;2023-05-10T02:18:03;100870.00;;;12.00;89.74
79703;BME280;69172;52.352;5.006;2023-05-10T02:20:31;100880.28;;;12.00;89.86
79703;BME280;69172;52.352;5.006;2023-05-10T02:22:58;100879.41;;;11.99;89.72
79703;BME280;69172;52.352;5.006;2023-05-10T02:25:24;100883.53;;;11.96;89.83
79703;BME280;69172;52.352;5.006;2023-05-10T02:27:54;100884.41;;;11.96;90.17
79703;BME280;69172;52.352;5.006;2023-05-10T02:30:21;100880.63;;;12.06;89.86
79703;BME280;69172;52.352;5.006;2023-05-10T02:32:49;100890.28;;;11.93;89.63
79703;BME280;69172;52.352;5.006;2023-05-10T02:35:15;100886.59;;;11.88;90.01
79703;BME280;69172;52.352;5.006;2023-05-10T02:37:41;100895.16;;;11.87;90.39
79703;BME280;69172;52.352;5.006;2023-05-10T02:40:09;100891.91;;;11.91;90.23
79703;BME280;69172;52.352;5.006;2023-05-10T02:42:37;100893.38;;;11.86;90.40
79703;BME280;69172;52.352;5.006;2023-05-10T02:45:07;100897.63;;;11.86;90.87
79703;BME280;69172;52.352;5.006;2023-05-10T02:47:33;100902.56;;;11.81;91.14
79703;BME280;69172;52.352;5.006;2023-05-10T02:49:59;100893.22;;;11.83;90.87
79703;BME280;69172;52.352;5.006;2023-05-10T02:52:27;100899.25;;;11.84;90.99
79703;BME280;69172;52.352;5.006;2023-05-10T02:54:55;100898.38;;;11.83;90.71
79703;BME280;69172;52.352;5.006;2023-05-10T02:57:27;100900.59;;;11.93;90.54
79703;BME280;69172;52.352;5.006;2023-05-10T02:59:54;100890.97;;;11.89;90.48
79703;BME280;69172;52.352;5.006;2023-05-10T03:02:20;100899.59;;;11.90;90.43
79703;BME280;69172;52.352;5.006;2023-05-10T03:04:46;100898.59;;;11.88;90.21
79703;BME280;69172;52.352;5.006;2023-05-10T03:07:11;100898.44;;;11.85;89.99
79703;BME280;69172;52.352;5.006;2023-05-10T03:09:37;100896.13;;;11.89;90.47
79703;BME280;69172;52.352;5.006;2023-05-10T03:12:22;100897.22;;;11.94;89.89
79703;BME280;69172;52.352;5.006;2023-05-10T03:20:39;100893.28;;;11.85;90.37
79703;BME280;69172;52.352;5.006;2023-05-10T03:25:51;100896.59;;;11.82;90.63
79703;BME280;69172;52.352;5.006;2023-05-10T03:28:18;100903.19;;;11.77;90.09
79703;BME280;69172;52.352;5.006;2023-05-10T03:30:44;100896.31;;;11.76;90.32
79703;BME280;69172;52.352;5.006;2023-05-10T03:33:10;100906.59;;;11.76;90.52
79703;BME280;69172;52.352;5.006;2023-05-10T03:35:36;100906.78;;;11.79;90.11
79703;BME280;69172;52.352;5.006;2023-05-10T03:38:01;100899.72;;;11.77;90.20
79703;BME280;69172;52.352;5.006;2023-05-10T03:40:28;100902.47;;;11.80;89.99
79703;BME280;69172;52.352;5.006;2023-05-10T03:42:59;100903.28;;;11.79;90.46
79703;BME280;69172;52.352;5.006;2023-05-10T03:45:25;100904.09;;;11.78;90.26
79703;BME280;69172;52.352;5.006;2023-05-10T03:47:50;100903.88;;;11.73;90.59
79703;BME280;69172;52.352;5.006;2023-05-10T03:50:16;100916.81;;;11.75;90.57
79703;BME280;69172;52.352;5.006;2023-05-10T03:52:41;100909.25;;;11.78;90.88
79703;BME280;69172;52.352;5.006;2023-05-10T03:55:07;100917.19;;;11.82;90.50
79703;BME280;69172;52.352;5.006;2023-05-10T03:57:33;100917.06;;;11.79;90.93
79703;BME280;69172;52.352;5.006;2023-05-10T03:59:58;100922.50;;;11.85;90.86
79703;BME280;69172;52.352;5.006;2023-05-10T04:02:24;100923.41;;;11.86;90.62
79703;BME280;69172;52.352;5.006;2023-05-10T04:04:49;100926.94;;;11.88;90.29
79703;BME280;69172;52.352;5.006;2023-05-10T04:07:15;100927.66;;;11.85;89.52
79703;BME280;69172;52.352;5.006;2023-05-10T04:09:40;100932.53;;;11.79;89.20
79703;BME280;69172;52.352;5.006;2023-05-10T04:12:06;100927.69;;;11.69;88.96
79703;BME280;69172;52.352;5.006;2023-05-10T04:14:31;100929.84;;;11.62;89.40
79703;BME280;69172;52.352;5.006;2023-05-10T04:16:57;100922.84;;;11.59;89.01
79703;BME280;69172;52.352;5.006;2023-05-10T04:19:22;100920.03;;;11.55;88.84
79703;BME280;69172;52.352;5.006;2023-05-10T04:21:47;100921.88;;;11.57;88.70
79703;BME280;69172;52.352;5.006;2023-05-10T04:24:13;100921.03;;;11.58;88.55
79703;BME280;69172;52.352;5.006;2023-05-10T04:26:38;100933.03;;;11.58;88.61
79703;BME280;69172;52.352;5.006;2023-05-10T04:29:03;100923.63;;;11.58;88.46
79703;BME280;69172;52.352;5.006;2023-05-10T04:31:29;100928.59;;;11.55;88.53
79703;BME280;69172;52.352;5.006;2023-05-10T04:33:54;100939.81;;;11.56;88.12
79703;BME280;69172;52.352;5.006;2023-05-10T04:36:19;100927.81;;;11.56;88.86
79703;BME280;69172;52.352;5.006;2023-05-10T04:38:45;100938.19;;;11.58;88.44
79703;BME280;69172;52.352;5.006;2023-05-10T04:41:10;100935.88;;;11.62;88.03
79703;BME280;69172;52.352;5.006;2023-05-10T04:43:37;100941.19;;;11.65;87.89
79703;BME280;69172;52.352;5.006;2023-05-10T04:46:03;100939.50;;;11.66;87.96
79703;BME280;69172;52.352;5.006;2023-05-10T04:48:29;100938.78;;;11.68;87.60
79703;BME280;69172;52.352;5.006;2023-05-10T04:50:54;100943.94;;;11.68;87.32
79703;BME280;69172;52.352;5.006;2023-05-10T04:53:20;100944.19;;;11.73;87.59
79703;BME280;69172;52.352;5.006;2023-05-10T04:55:46;100938.88;;;11.70;86.87
79703;BME280;69172;52.352;5.006;2023-05-10T04:58:12;100950.25;;;11.73;86.89
79703;BME280;69172;52.352;5.006;2023-05-10T05:00:37;100949.50;;;11.76;86.90
79703;BME280;69172;52.352;5.006;2023-05-10T05:03:03;100950.41;;;11.76;86.90
79703;BME280;69172;52.352;5.006;2023-05-10T05:05:28;100950.63;;;11.81;86.75
79703;BME280;69172;52.352;5.006;2023-05-10T05:07:53;100952.41;;;11.82;86.52
79703;BME280;69172;52.352;5.006;2023-05-10T05:10:19;100956.69;;;11.81;86.38
79703;BME280;69172;52.352;5.006;2023-05-10T05:12:44;100953.44;;;11.85;86.31
79703;BME280;69172;52.352;5.006;2023-05-10T05:15:10;100959.41;;;11.84;86.15
79703;BME280;69172;52.352;5.006;2023-05-10T05:17:36;100958.59;;;11.85;86.16
79703;BME280;69172;52.352;5.006;2023-05-10T05:20:01;100969.41;;;11.94;85.57
79703;BME280;69172;52.352;5.006;2023-05-10T05:22:26;100966.97;;;11.98;86.05
79703;BME280;69172;52.352;5.006;2023-05-10T05:24:57;100971.56;;;12.03;85.26
79703;BME280;69172;52.352;5.006;2023-05-10T05:27:23;100978.81;;;11.94;85.62
79703;BME280;69172;52.352;5.006;2023-05-10T05:29:54;100981.22;;;11.91;86.17
79703;BME280;69172;52.352;5.006;2023-05-10T05:32:20;100977.03;;;11.93;85.83
79703;BME280;69172;52.352;5.006;2023-05-10T05:34:47;100984.28;;;12.00;84.91
79703;BME280;69172;52.352;5.006;2023-05-10T05:37:14;100981.47;;;11.96;85.17
79703;BME280;69172;52.352;5.006;2023-05-10T05:39:39;100989.78;;;11.90;85.81
79703;BME280;69172;52.352;5.006;2023-05-10T05:42:05;100992.25;;;11.88;85.87
79703;BME280;69172;52.352;5.006;2023-05-10T05:44:30;100993.22;;;11.90;85.74
79703;BME280;69172;52.352;5.006;2023-05-10T05:46:55;100999.53;;;11.96;86.49
79703;BME280;69172;52.352;5.006;2023-05-10T05:49:21;101001.28;;;11.97;85.65
79703;BME280;69172;52.352;5.006;2023-05-10T05:51:46;101004.69;;;11.96;84.92
79703;BME280;69172;52.352;5.006;2023-05-10T05:54:20;100995.16;;;11.94;84.84
79703;BME280;69172;52.352;5.006;2023-05-10T05:56:45;101011.34;;;12.08;84.18
79703;BME280;69172;52.352;5.006;2023-05-10T05:59:11;101011.84;;;12.17;84.27
79703;BME280;69172;52.352;5.006;2023-05-10T06:01:37;101011.91;;;12.19;84.44
79703;BME280;69172;52.352;5.006;2023-05-10T06:04:02;101005.94;;;12.36;83.46
79703;BME280;69172;52.352;5.006;2023-05-10T06:06:28;101009.03;;;12.46;82.57
79703;BME280;69172;52.352;5.006;2023-05-10T06:08:54;101005.63;;;12.47;83.15
79703;BME280;69172;52.352;5.006;2023-05-10T06:11:20;101009.66;;;12.59;82.98
79703;BME280;69172;52.352;5.006;2023-05-10T06:13:52;101001.16;;;12.61;82.82
79703;BME280;69172;52.352;5.006;2023-05-10T06:16:18;101008.31;;;12.67;82.04
79703;BME280;69172;52.352;5.006;2023-05-10T06:18:45;101008.25;;;12.65;81.84
79703;BME280;69172;52.352;5.006;2023-05-10T06:21:14;101008.44;;;12.68;81.52
79703;BME280;69172;52.352;5.006;2023-05-10T06:23:48;101014.75;;;12.75;82.12
79703;BME280;69172;52.352;5.006;2023-05-10T06:26:13;101018.66;;;12.67;81.59
79703;BME280;69172;52.352;5.006;2023-05-10T06:28:39;101013.63;;;12.52;81.69
79703;BME280;69172;52.352;5.006;2023-05-10T06:31:05;101017.00;;;12.51;82.72
79703;BME280;69172;52.352;5.006;2023-05-10T06:33:31;101023.00;;;12.50;82.24
79703;BME280;69172;52.352;5.006;2023-05-10T06:35:57;101019.19;;;12.43;82.78
79703;BME280;69172;52.352;5.006;2023-05-10T06:38:22;101027.50;;;12.38;82.67
79703;BME280;69172;52.352;5.006;2023-05-10T06:40:48;101031.94;;;12.40;82.74
79703;BME280;69172;52.352;5.006;2023-05-10T06:43:14;101027.50;;;12.38;83.16
79703;BME280;69172;52.352;5.006;2023-05-10T06:45:39;101028.72;;;12.44;82.73
79703;BME280;69172;52.352;5.006;2023-05-10T06:48:05;101033.78;;;12.43;82.65
79703;BME280;69172;52.352;5.006;2023-05-10T06:50:31;101040.97;;;12.32;83.23
79703;BME280;69172;52.352;5.006;2023-05-10T06:52:56;101040.31;;;12.20;84.52
79703;BME280;69172;52.352;5.006;2023-05-10T06:55:21;101040.97;;;12.32;83.83
79703;BME280;69172;52.352;5.006;2023-05-10T06:57:47;101042.44;;;12.27;84.01
79703;BME280;69172;52.352;5.006;2023-05-10T07:00:13;101042.84;;;12.19;84.09
79703;BME280;69172;52.352;5.006;2023-05-10T07:02:39;101028.25;;;12.35;83.70
79703;BME280;69172;52.352;5.006;2023-05-10T07:05:05;101033.06;;;12.45;83.01
79703;BME280;69172;52.352;5.006;2023-05-10T07:07:30;101039.75;;;12.58;82.57
79703;BME280;69172;52.352;5.006;2023-05-10T07:09:57;101038.34;;;12.65;82.31
79703;BME280;69172;52.352;5.006;2023-05-10T07:12:23;101045.50;;;12.70;81.00
79703;BME280;69172;52.352;5.006;2023-05-10T07:14:49;101052.81;;;12.79;81.68
79703;BME280;69172;52.352;5.006;2023-05-10T07:17:14;101046.56;;;12.74;80.73
79703;BME280;69172;52.352;5.006;2023-05-10T07:19:40;101050.25;;;12.79;80.82
79703;BME280;69172;52.352;5.006;2023-05-10T07:22:05;101058.50;;;12.89;79.69
79703;BME280;69172;52.352;5.006;2023-05-10T07:24:32;101048.56;;;12.97;79.69
79703;BME280;69172;52.352;5.006;2023-05-10T07:26:58;101047.72;;;13.32;78.99
79703;BME280;69172;52.352;5.006;2023-05-10T07:29:23;101042.84;;;13.38;77.13
79703;BME280;69172;52.352;5.006;2023-05-10T07:31:49;101046.75;;;13.30;77.11
79703;BME280;69172;52.352;5.006;2023-05-10T07:34:14;101056.78;;;13.24;77.43
79703;BME280;69172;52.352;5.006;2023-05-10T07:36:40;101055.34;;;13.29;77.03
79703;BME280;69172;52.352;5.006;2023-05-10T07:39:06;101050.28;;;13.32;77.79
79703;BME280;69172;52.352;5.006;2023-05-10T07:41:31;101059.81;;;13.33;77.34
79703;BME280;69172;52.352;5.006;2023-05-10T07:44:05;101053.53;;;13.45;77.52
79703;BME280;69172;52.352;5.006;2023-05-10T07:46:31;101068.81;;;13.41;77.51
79703;BME280;69172;52.352;5.006;2023-05-10T07:48:56;101062.78;;;13.40;77.99
79703;BME280;69172;52.352;5.006;2023-05-10T07:51:22;101068.19;;;13.45;77.88
79703;BME280;69172;52.352;5.006;2023-05-10T07:53:47;101066.09;;;13.38;78.23
79703;BME280;69172;52.352;5.006;2023-05-10T07:56:23;101067.78;;;13.37;79.07
79703;BME280;69172;52.352;5.006;2023-05-10T07:58:50;101063.75;;;13.42;78.79
79703;BME280;69172;52.352;5.006;2023-05-10T08:01:16;101061.63;;;13.34;78.69
79703;BME280;69172;52.352;5.006;2023-05-10T08:03:41;101070.28;;;13.53;77.94
79703;BME280;69172;52.352;5.006;2023-05-10T08:06:07;101075.38;;;13.69;77.13
79703;BME280;69172;52.352;5.006;2023-05-10T08:08:33;101072.81;;;13.69;76.96
79703;BME280;69172;52.352;5.006;2023-05-10T08:10:58;101080.19;;;13.99;76.62
79703;BME280;69172;52.352;5.006;2023-05-10T08:13:24;101073.84;;;13.92;75.29
79703;BME280;69172;52.352;5.006;2023-05-10T08:15:51;101075.41;;;14.08;75.16
79703;BME280;69172;52.352;5.006;2023-05-10T08:18:18;101072.41;;;14.36;74.19
79703;BME280;69172;52.352;5.006;2023-05-10T08:20:44;101077.78;;;14.40;73.79
79703;BME280;69172;52.352;5.006;2023-05-10T08:23:09;101079.66;;;14.63;72.86
79703;BME280;69172;52.352;5.006;2023-05-10T08:25:36;101079.97;;;14.71;72.01
79703;BME280;69172;52.352;5.006;2023-05-10T08:28:01;101089.81;;;14.78;71.58
79703;BME280;69172;52.352;5.006;2023-05-10T08:30:26;101092.63;;;14.84;71.13
79703;BME280;69172;52.352;5.006;2023-05-10T08:32:52;101092.72;;;15.06;71.01
79703;BME280;69172;52.352;5.006;2023-05-10T08:35:17;101088.53;;;15.30;70.82
79703;BME280;69172;52.352;5.006;2023-05-10T08:37:42;101091.97;;;15.29;69.72
79703;BME280;69172;52.352;5.006;2023-05-10T08:40:08;101096.28;;;15.30;70.11
79703;BME280;69172;52.352;5.006;2023-05-10T08:42:40;101094.47;;;15.28;70.65
79703;BME280;69172;52.352;5.006;2023-05-10T08:45:09;101100.41;;;15.25;70.12
79703;BME280;69172;52.352;5.006;2023-05-10T08:47:36;101107.84;;;15.16;69.83
79703;BME280;69172;52.352;5.006;2023-05-10T08:50:03;101106.09;;;15.17;69.92
79703;BME280;69172;52.352;5.006;2023-05-10T08:52:30;101109.66;;;15.19;69.25
79703;BME280;69172;52.352;5.006;2023-05-10T08:54:56;101115.91;;;15.24;69.18
79703;BME280;69172;52.352;5.006;2023-05-10T08:57:28;101117.91;;;15.31;68.93
79703;BME280;69172;52.352;5.006;2023-05-10T08:59:53;101121.78;;;15.20;68.77
79703;BME280;69172;52.352;5.006;2023-05-10T09:02:20;101127.03;;;15.21;69.12
79703;BME280;69172;52.352;5.006;2023-05-10T09:04:46;101115.69;;;14.99;69.43
79703;BME280;69172;52.352;5.006;2023-05-10T09:07:11;101118.47;;;14.82;70.85
79703;BME280;69172;52.352;5.006;2023-05-10T09:09:38;101120.28;;;14.85;71.07
79703;BME280;69172;52.352;5.006;2023-05-10T09:12:03;101123.06;;;14.89;71.24
79703;BME280;69172;52.352;5.006;2023-05-10T09:14:30;101121.81;;;14.80;71.14
79703;BME280;69172;52.352;5.006;2023-05-10T09:16:56;101121.53;;;14.74;71.71
79703;BME280;69172;52.352;5.006;2023-05-10T09:19:21;101124.69;;;14.67;71.89
79703;BME280;69172;52.352;5.006;2023-05-10T09:21:46;101121.84;;;15.21;69.91
79703;BME280;69172;52.352;5.006;2023-05-10T09:24:12;101122.97;;;15.28;68.96
79703;BME280;69172;52.352;5.006;2023-05-10T09:26:46;101124.44;;;15.42;67.91
79703;BME280;69172;52.352;5.006;2023-05-10T09:29:13;101134.22;;;15.70;66.57
79703;BME280;69172;52.352;5.006;2023-05-10T09:31:46;101140.59;;;15.78;66.42
79703;BME280;69172;52.352;5.006;2023-05-10T09:34:15;101143.63;;;15.88;66.31
79703;BME280;69172;52.352;5.006;2023-05-10T09:36:52;101136.25;;;15.99;64.68
79703;BME280;69172;52.352;5.006;2023-05-10T09:39:18;101145.69;;;15.97;64.49
79703;BME280;69172;52.352;5.006;2023-05-10T09:41:43;101141.53;;;15.80;65.56
79703;BME280;69172;52.352;5.006;2023-05-10T09:44:09;101140.91;;;15.85;66.33
79703;BME280;69172;52.352;5.006;2023-05-10T09:46:37;101147.91;;;15.88;66.53
79703;BME280;69172;52.352;5.006;2023-05-10T09:49:02;101152.03;;;15.83;67.29
79703;BME280;69172;52.352;5.006;2023-05-10T09:51:28;101149.28;;;15.78;67.38
79703;BME280;69172;52.352;5.006;2023-05-10T09:54:13;101145.66;;;15.75;67.24
79703;BME280;69172;52.352;5.006;2023-05-10T09:56:39;101152.00;;;15.61;67.33
79703;BME280;69172;52.352;5.006;2023-05-10T09:59:06;101145.88;;;15.38;68.63
79703;BME280;69172;52.352;5.006;2023-05-10T10:01:33;101149.91;;;15.31;68.69
79703;BME280;69172;52.352;5.006;2023-05-10T10:04:05;101154.78;;;15.44;68.70
79703;BME280;69172;52.352;5.006;2023-05-10T10:06:38;101149.38;;;15.19;69.09
79703;BME280;69172;52.352;5.006;2023-05-10T10:09:04;101155.59;;;15.23;68.88
79703;BME280;69172;52.352;5.006;2023-05-10T10:11:30;101161.53;;;15.20;69.33
79703;BME280;69172;52.352;5.006;2023-05-10T10:13:55;101164.03;;;14.98;69.71
79703;BME280;69172;52.352;5.006;2023-05-10T10:16:21;101156.19;;;14.97;69.23
79703;BME280;69172;52.352;5.006;2023-05-10T10:18:48;101167.69;;;15.03;69.64
79703;BME280;69172;52.352;5.006;2023-05-10T10:21:14;101163.34;;;15.02;68.88
79703;BME280;69172;52.352;5.006;2023-05-10T10:23:40;101158.81;;;15.17;68.94
79703;BME280;69172;52.352;5.006;2023-05-10T10:26:06;101162.59;;;15.25;67.80
79703;BME280;69172;52.352;5.006;2023-05-10T10:28:47;101175.00;;;15.32;67.32
79703;BME280;69172;52.352;5.006;2023-05-10T10:31:32;101166.91;;;15.66;66.71
79703;BME280;69172;52.352;5.006;2023-05-10T10:34:03;101170.41;;;15.67;65.85
79703;BME280;69172;52.352;5.006;2023-05-10T10:36:30;101165.00;;;15.83;65.94
79703;BME280;69172;52.352;5.006;2023-05-10T10:39:00;101160.97;;;15.89;64.84
79703;BME280;69172;52.352;5.006;2023-05-10T10:41:35;101167.53;;;16.03;65.05
79703;BME280;69172;52.352;5.006;2023-05-10T10:47:01;101165.03;;;16.05;64.05
79703;BME280;69172;52.352;5.006;2023-05-10T10:49:28;101160.88;;;16.10;63.67
79703;BME280;69172;52.352;5.006;2023-05-10T10:52:24;101167.78;;;16.09;64.34
79703;BME280;69172;52.352;5.006;2023-05-10T10:57:26;101181.97;;;15.75;63.81
79703;BME280;69172;52.352;5.006;2023-05-10T11:00:18;101172.41;;;15.74;64.89
79703;BME280;69172;52.352;5.006;2023-05-10T11:02:44;101174.91;;;15.71;66.03
79703;BME280;69172;52.352;5.006;2023-05-10T11:07:58;101167.69;;;15.64;66.87
79703;BME280;69172;52.352;5.006;2023-05-10T11:10:25;101173.75;;;15.64;66.66
79703;BME280;69172;52.352;5.006;2023-05-10T11:13:04;101181.03;;;15.73;66.63
79703;BME280;69172;52.352;5.006;2023-05-10T11:15:36;101182.34;;;15.63;67.31
79703;BME280;69172;52.352;5.006;2023-05-10T11:18:28;101183.38;;;15.67;67.55
79703;BME280;69172;52.352;5.006;2023-05-10T11:20:59;101183.88;;;15.58;67.48
79703;BME280;69172;52.352;5.006;2023-05-10T11:23:29;101188.03;;;15.55;67.59
79703;BME280;69172;52.352;5.006;2023-05-10T11:25:55;101181.25;;;15.57;67.81
79703;BME280;69172;52.352;5.006;2023-05-10T11:28:21;101188.94;;;15.55;67.65
79703;BME280;69172;52.352;5.006;2023-05-10T11:30:46;101192.41;;;15.56;67.68
79703;BME280;69172;52.352;5.006;2023-05-10T11:33:16;101185.97;;;15.67;67.85
79703;BME280;69172;52.352;5.006;2023-05-10T11:35:43;101191.31;;;15.71;67.51
79703;BME280;69172;52.352;5.006;2023-05-10T11:38:10;101190.19;;;15.85;66.96
79703;BME280;69172;52.352;5.006;2023-05-10T11:40:37;101193.06;;;15.93;67.10
79703;BME280;69172;52.352;5.006;2023-05-10T11:43:04;101200.28;;;16.00;67.44
79703;BME280;69172;52.352;5.006;2023-05-10T11:45:34;101196.63;;;15.95;67.07
79703;BME280;69172;52.352;5.006;2023-05-10T11:48:00;101200.22;;;15.98;67.25
79703;BME280;69172;52.352;5.006;2023-05-10T11:50:26;101203.09;;;15.84;67.85
79703;BME280;69172;52.352;5.006;2023-05-10T11:52:52;101203.59;;;15.75;68.05
79703;BME280;69172;52.352;5.006;2023-05-10T11:55:18;101206.13;;;15.74;67.54
79703;BME280;69172;52.352;5.006;2023-05-10T11:57:44;101208.63;;;15.71;67.77
79703;BME280;69172;52.352;5.006;2023-05-10T12:00:14;101214.66;;;15.71;67.71
79703;BME280;69172;52.352;5.006;2023-05-10T12:02:40;101206.25;;;15.77;67.47
79703;BME280;69172;52.352;5.006;2023-05-10T12:05:11;101217.69;;;15.82;67.76
79703;BME280;69172;52.352;5.006;2023-05-10T12:07:37;101209.53;;;15.93;67.60
79703;BME280;69172;52.352;5.006;2023-05-10T12:10:13;101218.03;;;16.12;66.91
79703;BME280;69172;52.352;5.006;2023-05-10T12:12:45;101217.94;;;15.88;67.17
79703;BME280;69172;52.352;5.006;2023-05-10T12:17:39;101220.91;;;15.76;68.88
79703;BME280;69172;52.352;5.006;2023-05-10T12:22:50;101215.44;;;15.89;68.36
79703;BME280;69172;52.352;5.006;2023-05-10T12:25:16;101215.44;;;15.89;68.00
79703;BME280;69172;52.352;5.006;2023-05-10T12:28:03;101227.00;;;15.77;67.74
79703;BME280;69172;52.352;5.006;2023-05-10T12:33:39;101227.22;;;15.81;68.29
79703;BME280;69172;52.352;5.006;2023-05-10T12:36:07;101223.84;;;15.84;68.32
79703;BME280;69172;52.352;5.006;2023-05-10T12:41:03;101219.69;;;16.32;66.69
79703;BME280;69172;52.352;5.006;2023-05-10T12:43:28;101215.25;;;16.51;64.97
79703;BME280;69172;52.352;5.006;2023-05-10T12:45:54;101210.38;;;16.59;64.22
79703;BME280;69172;52.352;5.006;2023-05-10T12:48:19;101218.06;;;16.80;63.19
79703;BME280;69172;52.352;5.006;2023-05-10T12:50:45;101221.00;;;17.12;62.99
79703;BME280;69172;52.352;5.006;2023-05-10T12:53:11;101225.16;;;16.84;62.12
79703;BME280;69172;52.352;5.006;2023-05-10T12:55:36;101219.41;;;17.16;61.75
79703;BME280;69172;52.352;5.006;2023-05-10T12:58:02;101216.19;;;17.48;60.04
79703;BME280;69172;52.352;5.006;2023-05-10T13:00:27;101219.44;;;17.43;59.95
79703;BME280;69172;52.352;5.006;2023-05-10T13:02:54;101227.44;;;17.47;59.41
79703;BME280;69172;52.352;5.006;2023-05-10T13:05:19;101223.91;;;17.70;58.77
79703;BME280;69172;52.352;5.006;2023-05-10T13:07:45;101220.19;;;17.64;58.35
79703;BME280;69172;52.352;5.006;2023-05-10T13:10:11;101224.69;;;17.95;57.45
79703;BME280;69172;52.352;5.006;2023-05-10T13:12:36;101219.09;;;18.37;57.15
79703;BME280;69172;52.352;5.006;2023-05-10T13:15:02;101222.16;;;18.24;57.31
79703;BME280;69172;52.352;5.006;2023-05-10T13:17:28;101224.84;;;18.54;57.00
79703;BME280;69172;52.352;5.006;2023-05-10T13:19:54;101230.22;;;18.59;57.08
79703;BME280;69172;52.352;5.006;2023-05-10T13:22:19;101228.13;;;18.49;56.94